Atwater, California
Current Conditions -  °F | °C
As of 11:45 AM on Friday 19 Dec 2014 (Local Time) from KMER Reporting Station
Overcast Overcast  
Wind Chill: 13°   Ceiling: 9000
Heat Index: 13°   Visibility: 10mi
Dew Point: 12°   Wind: 13mph
Humidity: 94%   Direction: 150°SSE
Pressure: 30.19"   Gusts: NA
Location:  37.35°N, 120.6°W
Report Text: KMER 191945Z 15011KT 10SM FEW050 OVC090 13/12 A3019
Loading
Personal Weather Stations






























Interactive Weather Map New forecast layout! Learn more

10-Day Weather Forecast

Advertisements
Track Severe Weather on mobile